Time;durP1;ratioP1;P1;durP2;ratioP2;P2;SDS_P1;SDS_P2;PMS_P1;PMS_P2;Temp;Humidity;BMP_temperature;BMP_pressure;BME280_temperature;BME280_humidity;BME280_pressure;Samples;Min_cycle;Max_cycle;Signal;HPM_P1;HPM_P2
2021/05/04 00:01:20;;;;;;;23.88;11.10;;;16.60;99.90;;;;;;5050841;28;20882;-79
2021/05/04 00:03:49;;;;;;;21.45;11.98;;;16.70;99.90;;;;;;5050705;28;20384;-80
2021/05/04 00:06:16;;;;;;;23.95;11.77;;;16.70;99.90;;;;;;5050673;28;20394;-80
2021/05/04 00:08:43;;;;;;;26.45;12.48;;;16.70;99.90;;;;;;5050601;28;20388;-80
2021/05/04 00:11:10;;;;;;;25.00;12.67;;;16.60;99.90;;;;;;5050276;28;20830;-80
2021/05/04 00:13:37;;;;;;;23.65;12.23;;;16.50;99.90;;;;;;5050370;28;20395;-80
2021/05/04 00:16:04;;;;;;;18.63;12.82;;;16.50;99.90;;;;;;5050451;28;20388;-80
2021/05/04 00:18:32;;;;;;;26.05;12.20;;;16.30;99.90;;;;;;5050892;28;20375;-80
2021/05/04 00:20:59;;;;;;;20.53;12.23;;;16.30;99.90;;;;;;5050341;28;20395;-80
2021/05/04 00:23:26;;;;;;;20.80;12.35;;;16.20;99.90;;;;;;5051013;28;20394;-80
2021/05/04 00:25:53;;;;;;;19.58;12.50;;;16.20;99.90;;;;;;5051211;28;20514;-79
2021/05/04 00:28:20;;;;;;;19.45;12.60;;;16.20;99.90;;;;;;5051035;28;20387;-80
2021/05/04 00:30:47;;;;;;;18.65;12.18;;;16.20;99.90;;;;;;5050100;28;20372;-81
2021/05/04 00:33:14;;;;;;;22.40;12.93;;;16.10;99.90;;;;;;5049786;28;20762;-81
2021/05/04 00:35:41;;;;;;;21.27;13.20;;;16.10;99.90;;;;;;5049553;28;20944;-81
2021/05/04 00:38:08;;;;;;;21.92;13.63;;;16.10;99.90;;;;;;5047609;28;20403;-82
2021/05/04 00:40:35;;;;;;;21.02;13.25;;;16.00;99.90;;;;;;5047204;28;20471;-83
2021/05/04 00:43:02;;;;;;;19.45;13.60;;;16.00;99.90;;;;;;5050220;28;20407;-83
2021/05/04 00:45:29;;;;;;;21.88;13.20;;;16.00;99.90;;;;;;5050417;28;20394;-82
2021/05/04 00:47:56;;;;;;;24.25;13.68;;;15.90;99.90;;;;;;5050955;28;20406;-82
2021/05/04 00:50:23;;;;;;;19.27;14.95;;;15.90;99.90;;;;;;5052503;28;20406;-79
2021/05/04 00:52:51;;;;;;;24.83;14.85;;;15.90;99.90;;;;;;5050279;28;22253;-80
2021/05/04 00:55:18;;;;;;;24.52;15.35;;;15.90;99.90;;;;;;5050063;28;20384;-80
2021/05/04 00:57:48;;;;;;;27.60;15.20;;;15.90;99.90;;;;;;5049449;28;20383;-79
2021/05/04 01:00:15;;;;;;;21.10;14.05;;;15.90;99.90;;;;;;5048345;28;20392;-79
2021/05/04 01:02:44;;;;;;;25.63;14.88;;;15.90;99.90;;;;;;5047860;28;20691;-79
2021/05/04 01:05:12;;;;;;;23.45;15.18;;;16.00;99.90;;;;;;5048779;28;20399;-81
2021/05/04 01:07:39;;;;;;;22.15;14.75;;;16.00;99.90;;;;;;5048883;28;20883;-81
2021/05/04 01:10:07;;;;;;;24.83;15.38;;;16.00;99.90;;;;;;5048734;28;20716;-80
2021/05/04 01:12:35;;;;;;;23.13;15.80;;;16.10;99.90;;;;;;5048497;28;20375;-81
2021/05/04 01:15:02;;;;;;;29.58;17.98;;;16.10;99.90;;;;;;5048589;28;20457;-79
2021/05/04 01:17:30;;;;;;;20.35;16.83;;;16.10;99.90;;;;;;5048673;28;20930;-79
2021/05/04 01:19:57;;;;;;;26.17;20.13;;;16.10;99.90;;;;;;5048494;28;20387;-81
2021/05/04 01:22:25;;;;;;;28.65;19.48;;;16.10;99.90;;;;;;5047766;28;21084;-82
2021/05/04 01:24:52;;;;;;;29.10;20.58;;;16.10;99.90;;;;;;5048246;28;20376;-80
2021/05/04 01:27:19;;;;;;;32.55;21.52;;;16.10;99.90;;;;;;5048192;28;20581;-80
2021/05/04 01:29:46;;;;;;;27.15;20.90;;;16.10;99.90;;;;;;5047899;28;20399;-80
2021/05/04 01:32:13;;;;;;;30.33;21.87;;;16.10;99.90;;;;;;5047812;28;20490;-81
2021/05/04 01:34:40;;;;;;;28.98;21.60;;;16.00;99.90;;;;;;5048138;28;20410;-82
2021/05/04 01:37:07;;;;;;;28.05;22.58;;;15.90;99.90;;;;;;5048256;28;20376;-81
2021/05/04 01:39:43;;;;;;;34.17;24.33;;;15.80;99.90;;;;;;5047892;28;20396;-83
2021/05/04 01:42:14;;;;;;;30.60;25.03;;;15.70;99.90;;;;;;5048044;28;20424;-82
2021/05/04 01:44:42;;;;;;;31.77;22.03;;;15.70;99.90;;;;;;5047512;28;20399;-80
2021/05/04 01:47:10;;;;;;;29.55;21.80;;;15.70;99.90;;;;;;5046633;28;20700;-80
2021/05/04 01:49:37;;;;;;;30.40;20.27;;;15.70;99.90;;;;;;5050090;28;20742;-80
2021/05/04 01:52:06;;;;;;;28.40;20.70;;;15.80;99.90;;;;;;5052374;28;20371;-80
2021/05/04 01:54:33;;;;;;;27.50;20.35;;;15.80;99.90;;;;;;5052405;28;20407;-81
2021/05/04 01:57:01;;;;;;;25.60;19.38;;;15.80;99.90;;;;;;5052385;28;20462;-81
2021/05/04 01:59:29;;;;;;;24.73;19.00;;;15.80;99.90;;;;;;5053313;28;20997;-82
2021/05/04 02:01:57;;;;;;;28.65;20.50;;;15.80;99.90;;;;;;5052125;28;20530;-83
2021/05/04 02:04:25;;;;;;;27.75;20.38;;;15.70;99.90;;;;;;5051952;28;20874;-82
2021/05/04 02:06:53;;;;;;;24.50;20.08;;;15.70;99.90;;;;;;5052130;28;20414;-82
2021/05/04 02:09:20;;;;;;;26.13;19.13;;;15.60;99.90;;;;;;5052179;28;20816;-81
2021/05/04 02:11:47;;;;;;;27.10;20.63;;;15.60;99.90;;;;;;5052150;28;20395;-81
2021/05/04 02:14:14;;;;;;;23.60;20.35;;;15.60;99.90;;;;;;5053248;28;20395;-81
2021/05/04 02:16:41;;;;;;;30.02;21.80;;;15.50;99.90;;;;;;5053052;28;21109;-81
2021/05/04 02:19:07;;;;;;;31.35;23.52;;;15.50;99.90;;;;;;5052299;28;20380;-82
2021/05/04 02:21:34;;;;;;;29.63;23.55;;;15.30;99.90;;;;;;5051379;28;20402;-83
2021/05/04 02:24:01;;;;;;;32.25;24.45;;;15.30;99.90;;;;;;5051635;28;20480;-82
2021/05/04 02:26:28;;;;;;;33.50;23.85;;;15.10;99.90;;;;;;5051449;28;20382;-81
2021/05/04 02:28:55;;;;;;;31.45;25.27;;;15.10;99.90;;;;;;5051561;28;20459;-79
2021/05/04 02:31:22;;;;;;;29.83;23.42;;;15.10;99.90;;;;;;5052567;28;20878;-79
2021/05/04 02:33:49;;;;;;;31.90;22.48;;;15.10;99.90;;;;;;5052370;28;20422;-79
2021/05/04 02:36:16;;;;;;;29.20;21.95;;;15.00;99.90;;;;;;5052397;28;20745;-79
2021/05/04 02:38:43;;;;;;;29.52;22.33;;;15.10;99.90;;;;;;5053169;28;20391;-79
2021/05/04 02:41:11;;;;;;;31.20;22.00;;;15.20;99.90;;;;;;5052448;28;20400;-79
2021/05/04 02:43:38;;;;;;;24.90;20.15;;;15.30;99.90;;;;;;5053608;28;20478;-79
2021/05/04 02:46:06;;;;;;;27.83;21.88;;;15.30;99.90;;;;;;5051272;28;20367;-80
2021/05/04 02:48:39;;;;;;;26.55;21.23;;;15.30;99.90;;;;;;5053116;28;20391;-81
2021/05/04 02:51:11;;;;;;;30.58;22.02;;;15.50;99.90;;;;;;5051812;28;20387;-81
2021/05/04 02:53:39;;;;;;;25.67;19.52;;;15.70;99.90;;;;;;5052081;28;20495;-81
2021/05/04 02:56:07;;;;;;;26.02;19.55;;;15.80;99.90;;;;;;5051144;28;20375;-82
2021/05/04 02:58:34;;;;;;;25.67;19.88;;;15.80;99.90;;;;;;5051243;28;20360;-80
2021/05/04 03:01:02;;;;;;;23.98;19.77;;;15.90;99.90;;;;;;5050536;28;20433;-80
2021/05/04 03:03:29;;;;;;;25.88;19.55;;;16.00;99.90;;;;;;5051609;28;20441;-80
2021/05/04 03:05:56;;;;;;;25.15;19.73;;;16.00;99.90;;;;;;5051414;28;20422;-80
2021/05/04 03:08:24;;;;;;;25.90;19.25;;;15.90;99.90;;;;;;5051297;28;20419;-80
2021/05/04 03:10:51;;;;;;;25.95;20.63;;;15.80;99.90;;;;;;5050371;28;20414;-80
2021/05/04 03:13:26;;;;;;;25.77;19.85;;;15.70;99.90;;;;;;5051270;28;20826;-80
2021/05/04 03:15:53;;;;;;;27.67;20.00;;;15.70;99.90;;;;;;5050995;28;20408;-79
2021/05/04 03:18:20;;;;;;;25.05;20.10;;;15.70;99.90;;;;;;5051775;28;20374;-79
2021/05/04 03:20:54;;;;;;;25.08;19.92;;;15.70;99.90;;;;;;5051757;28;20765;-79
2021/05/04 03:23:22;;;;;;;24.10;18.70;;;15.70;99.90;;;;;;5051793;28;20490;-79
2021/05/04 03:25:50;;;;;;;24.05;17.67;;;15.80;99.90;;;;;;5052155;28;20812;-79
2021/05/04 03:28:18;;;;;;;22.63;18.25;;;15.80;99.90;;;;;;5052219;28;20372;-80
2021/05/04 03:30:45;;;;;;;25.80;19.05;;;15.90;99.90;;;;;;5052977;28;20383;-80
2021/05/04 03:33:12;;;;;;;23.30;19.05;;;15.90;99.90;;;;;;5052295;28;20399;-80
2021/05/04 03:35:39;;;;;;;28.23;18.53;;;15.90;99.90;;;;;;5053355;28;20477;-80
2021/05/04 03:38:06;;;;;;;25.05;18.60;;;15.90;99.90;;;;;;5052474;28;20851;-81
2021/05/04 03:40:33;;;;;;;24.20;20.08;;;16.00;99.90;;;;;;5051098;28;20387;-81
2021/05/04 03:43:01;;;;;;;26.40;20.23;;;15.90;99.90;;;;;;5050974;28;20936;-81
2021/05/04 03:45:28;;;;;;;25.92;20.95;;;15.80;99.90;;;;;;5049847;28;20398;-82
2021/05/04 03:47:56;;;;;;;29.67;22.40;;;15.70;99.90;;;;;;5050987;28;20396;-83
2021/05/04 03:50:27;;;;;;;28.27;20.80;;;15.70;99.90;;;;;;5051127;28;20402;-83
2021/05/04 03:52:59;;;;;;;26.42;19.95;;;15.50;99.90;;;;;;5051263;28;20387;-86
2021/05/04 03:55:26;;;;;;;26.45;19.00;;;15.40;99.90;;;;;;5050371;28;20438;-81
2021/05/04 03:57:53;;;;;;;26.70;19.77;;;15.50;99.90;;;;;;5050011;28;20925;-80
2021/05/04 04:00:21;;;;;;;27.67;19.70;;;15.50;99.90;;;;;;5050324;28;20777;-81
2021/05/04 04:02:49;;;;;;;28.53;19.80;;;15.40;99.90;;;;;;5050620;28;20379;-81
2021/05/04 04:05:16;;;;;;;26.45;20.05;;;15.30;99.90;;;;;;5050109;28;20388;-80
2021/05/04 04:07:43;;;;;;;28.77;20.33;;;15.20;99.90;;;;;;5049980;28;20471;-81
2021/05/04 04:10:12;;;;;;;28.90;20.80;;;15.20;99.90;;;;;;5049439;28;20435;-81
2021/05/04 04:12:40;;;;;;;27.38;19.45;;;15.10;99.90;;;;;;5048997;28;20882;-82
2021/05/04 04:15:11;;;;;;;24.47;19.03;;;15.10;99.90;;;;;;5050008;28;20400;-81
2021/05/04 04:17:38;;;;;;;24.83;19.08;;;15.10;99.90;;;;;;5050200;28;20387;-80
2021/05/04 04:20:06;;;;;;;25.83;19.95;;;15.10;99.90;;;;;;5053429;28;20387;-82
2021/05/04 04:22:35;;;;;;;17.90;13.50;;;15.20;99.90;;;;;;5051208;28;20436;-82
2021/05/04 04:25:06;;;;;;;19.08;12.63;;;15.10;99.90;;;;;;5050155;28;20419;-81
2021/05/04 04:27:33;;;;;;;17.30;12.73;;;15.00;99.90;;;;;;5049715;28;20950;-81
2021/05/04 04:30:00;;;;;;;17.07;12.87;;;14.90;99.90;;;;;;5049842;28;20368;-82
2021/05/04 04:32:27;;;;;;;15.77;13.52;;;14.90;99.90;;;;;;5049353;28;20384;-81
2021/05/04 04:34:54;;;;;;;19.42;14.02;;;14.90;99.90;;;;;;5049544;28;20430;-82
2021/05/04 04:37:22;;;;;;;16.55;14.50;;;14.90;99.90;;;;;;5049159;28;20384;-84
2021/05/04 04:39:49;;;;;;;18.95;14.95;;;14.90;99.90;;;;;;5049829;28;20379;-83
2021/05/04 04:42:16;;;;;;;18.63;15.95;;;15.00;99.90;;;;;;5050565;28;20375;-81
2021/05/04 04:44:43;;;;;;;21.63;15.63;;;15.00;99.90;;;;;;5051293;28;20364;-81
2021/05/04 04:47:12;;;;;;;19.20;16.05;;;15.00;99.90;;;;;;5049365;28;20448;-80
2021/05/04 04:49:39;;;;;;;21.60;19.03;;;15.00;99.90;;;;;;5049753;28;20380;-81
2021/05/04 04:52:06;;;;;;;22.02;17.90;;;15.00;99.90;;;;;;5048718;28;20379;-81
2021/05/04 04:54:33;;;;;;;22.30;17.67;;;15.00;99.90;;;;;;5048905;28;20735;-80
2021/05/04 04:57:01;;;;;;;23.10;17.83;;;15.10;99.90;;;;;;5048671;28;20475;-80
2021/05/04 04:59:28;;;;;;;23.95;17.13;;;15.10;99.90;;;;;;5049389;28;20501;-81
2021/05/04 05:01:55;;;;;;;21.15;17.08;;;15.10;99.90;;;;;;5049318;28;20438;-81
2021/05/04 05:04:23;;;;;;;20.08;17.95;;;15.10;99.90;;;;;;5050470;28;20411;-81
2021/05/04 05:06:51;;;;;;;21.38;17.90;;;15.10;99.90;;;;;;5052022;28;20421;-81
2021/05/04 05:09:18;;;;;;;22.10;18.83;;;15.00;99.90;;;;;;5050694;28;20376;-82
2021/05/04 05:11:45;;;;;;;20.50;18.35;;;14.90;99.90;;;;;;5050732;28;20391;-80
2021/05/04 05:14:12;;;;;;;24.77;19.25;;;14.90;99.90;;;;;;5050007;28;20453;-80
2021/05/04 05:16:39;;;;;;;25.60;20.77;;;14.90;99.90;;;;;;5048958;28;20790;-81
2021/05/04 05:19:07;;;;;;;23.50;19.13;;;14.80;99.90;;;;;;5049482;28;20763;-80
2021/05/04 05:21:37;;;;;;;21.13;17.43;;;14.80;99.90;;;;;;5049057;28;20400;-81
2021/05/04 05:24:04;;;;;;;21.67;17.57;;;14.80;99.90;;;;;;5049217;28;20392;-82
2021/05/04 05:26:31;;;;;;;20.52;17.20;;;14.70;99.90;;;;;;5048809;28;20874;-82
2021/05/04 05:28:59;;;;;;;20.52;16.23;;;14.80;99.90;;;;;;5048950;28;20437;-81
2021/05/04 05:31:28;;;;;;;19.73;16.70;;;14.90;99.90;;;;;;5049105;28;20376;-82
2021/05/04 05:33:55;;;;;;;19.45;14.70;;;14.80;99.90;;;;;;5050704;28;20403;-81
2021/05/04 05:36:22;;;;;;;17.67;14.88;;;14.70;99.90;;;;;;5052627;28;20433;-82
2021/05/04 05:38:49;;;;;;;19.27;15.02;;;14.70;99.90;;;;;;5053031;28;20454;-81
2021/05/04 05:41:16;;;;;;;16.83;15.03;;;14.70;99.90;;;;;;5054377;28;20410;-81
2021/05/04 05:43:43;;;;;;;13.10;11.70;;;14.70;99.90;;;;;;5050538;28;20364;-81
2021/05/04 05:46:10;;;;;;;14.32;10.23;;;14.70;99.90;;;;;;5048877;28;20398;-82
2021/05/04 05:48:37;;;;;;;13.45;10.82;;;14.60;99.90;;;;;;5051440;28;20419;-82
2021/05/04 05:51:05;;;;;;;14.80;10.90;;;14.70;99.90;;;;;;5049949;28;20382;-80
2021/05/04 05:53:32;;;;;;;13.95;11.10;;;14.70;99.90;;;;;;5050009;28;20422;-79
2021/05/04 05:55:59;;;;;;;15.80;12.40;;;14.70;99.90;;;;;;5048762;28;20380;-79
2021/05/04 05:58:26;;;;;;;15.80;13.98;;;14.70;99.90;;;;;;5049397;28;20406;-80
2021/05/04 06:00:55;;;;;;;19.20;16.05;;;14.80;99.90;;;;;;5061683;28;20383;-79
2021/05/04 06:03:23;;;;;;;21.35;17.65;;;14.90;99.90;;;;;;5096939;28;20384;-79
2021/05/04 06:05:54;;;;;;;23.75;17.73;;;14.90;99.90;;;;;;5064833;28;20447;-79
2021/05/04 06:08:21;;;;;;;22.20;18.80;;;15.00;99.90;;;;;;5067294;28;20376;-78
2021/05/04 06:10:48;;;;;;;22.10;16.92;;;15.00;99.90;;;;;;5063849;28;20410;-79
2021/05/04 06:13:15;;;;;;;20.77;15.98;;;15.10;99.90;;;;;;5064462;28;20391;-79
2021/05/04 06:15:43;;;;;;;21.70;18.05;;;15.00;99.90;;;;;;5063288;28;20387;-80
2021/05/04 06:18:12;;;;;;;21.48;19.00;;;15.00;99.90;;;;;;5063544;28;20371;-80
2021/05/04 06:20:39;;;;;;;24.50;18.58;;;14.90;99.90;;;;;;5061036;28;21165;-80
2021/05/04 06:23:07;;;;;;;23.23;18.15;;;15.00;99.90;;;;;;5060171;28;20380;-79
2021/05/04 06:25:35;;;;;;;24.67;20.33;;;15.00;99.90;;;;;;5060330;28;20388;-80
2021/05/04 06:28:08;;;;;;;27.53;20.87;;;14.90;99.90;;;;;;5062678;28;20368;-79
2021/05/04 06:30:37;;;;;;;27.77;22.02;;;14.90;99.90;;;;;;5056018;28;20387;-79
2021/05/04 06:33:22;;;;;;;25.70;21.88;;;14.80;99.90;;;;;;5051482;28;20403;-81
2021/05/04 06:35:49;;;;;;;29.52;22.73;;;14.90;99.90;;;;;;5051377;28;20890;-80
2021/05/04 06:38:18;;;;;;;27.95;22.10;;;14.90;99.90;;;;;;5052262;28;20408;-81
2021/05/04 06:40:48;;;;;;;25.65;21.55;;;14.90;99.90;;;;;;5052720;28;20376;-80
2021/05/04 06:43:15;;;;;;;30.75;23.55;;;14.90;99.90;;;;;;5051727;28;20390;-79
2021/05/04 06:45:42;;;;;;;29.27;23.08;;;14.80;99.90;;;;;;5051745;28;20398;-80
2021/05/04 06:48:09;;;;;;;26.38;21.63;;;14.80;99.90;;;;;;5051377;28;20452;-80
2021/05/04 06:50:36;;;;;;;23.75;20.90;;;14.80;99.90;;;;;;5051392;28;20443;-80
2021/05/04 06:53:04;;;;;;;21.95;19.40;;;14.80;99.90;;;;;;5049424;28;20412;-80
2021/05/04 06:55:32;;;;;;;25.45;20.60;;;14.80;99.90;;;;;;5051615;28;20375;-80
2021/05/04 06:57:59;;;;;;;28.95;21.95;;;14.70;99.90;;;;;;5051568;28;20376;-81
2021/05/04 07:00:26;;;;;;;27.55;22.73;;;14.60;99.90;;;;;;5051641;28;20391;-80
2021/05/04 07:02:53;;;;;;;28.15;22.77;;;14.50;99.90;;;;;;5051271;28;20418;-80
2021/05/04 07:05:21;;;;;;;27.65;22.27;;;14.50;99.90;;;;;;5051512;28;20407;-80
2021/05/04 07:07:48;;;;;;;27.70;23.23;;;14.40;99.90;;;;;;5051506;28;20372;-79
2021/05/04 07:10:15;;;;;;;27.42;23.45;;;14.50;99.90;;;;;;5051246;28;20396;-80
2021/05/04 07:12:43;;;;;;;26.77;21.10;;;14.60;99.90;;;;;;5051380;28;20384;-80
2021/05/04 07:15:11;;;;;;;31.23;21.63;;;14.60;99.90;;;;;;5051515;28;20874;-80
2021/05/04 07:17:38;;;;;;;28.15;21.63;;;14.60;99.90;;;;;;5051597;28;20372;-80
2021/05/04 07:20:05;;;;;;;25.63;19.88;;;14.60;99.90;;;;;;5052275;28;20388;-80
2021/05/04 07:22:34;;;;;;;21.15;18.85;;;14.60;99.90;;;;;;5051457;28;20386;-80
2021/05/04 07:25:01;;;;;;;23.23;19.20;;;14.60;99.90;;;;;;5031432;28;20916;-81
2021/05/04 07:27:28;;;;;;;25.17;20.70;;;14.60;99.90;;;;;;5031299;28;20451;-80
2021/05/04 07:29:56;;;;;;;25.65;20.45;;;14.50;99.90;;;;;;5044928;28;20801;-79
2021/05/04 07:32:23;;;;;;;22.00;18.42;;;14.60;99.90;;;;;;5049411;28;20402;-79
2021/05/04 07:34:50;;;;;;;23.27;20.08;;;14.50;99.90;;;;;;5048978;28;20415;-79
2021/05/04 07:37:17;;;;;;;23.48;20.90;;;14.40;99.90;;;;;;5049160;28;20886;-79
2021/05/04 07:39:45;;;;;;;23.40;20.87;;;14.30;99.90;;;;;;5049198;28;20402;-79
2021/05/04 07:42:13;;;;;;;25.27;22.53;;;14.40;99.90;;;;;;5046339;28;20406;-79
2021/05/04 07:44:40;;;;;;;26.33;23.50;;;14.40;99.90;;;;;;5048262;28;20423;-78
2021/05/04 07:47:07;;;;;;;27.80;22.60;;;14.40;99.90;;;;;;5043366;28;20423;-78
2021/05/04 07:49:41;;;;;;;27.90;22.85;;;14.40;99.90;;;;;;5050661;28;20461;-79
2021/05/04 07:52:08;;;;;;;28.08;22.50;;;14.30;99.90;;;;;;5051796;28;20885;-80
2021/05/04 07:54:35;;;;;;;25.52;22.30;;;14.30;99.90;;;;;;5049660;28;20414;-79
2021/05/04 07:57:03;;;;;;;25.35;22.63;;;14.30;99.90;;;;;;5049198;28;20471;-79
2021/05/04 07:59:30;;;;;;;24.65;20.23;;;14.30;99.90;;;;;;5049770;28;20961;-79
2021/05/04 08:01:58;;;;;;;24.00;21.27;;;14.30;99.90;;;;;;5049578;28;20430;-79
2021/05/04 08:04:26;;;;;;;25.02;21.83;;;14.20;99.90;;;;;;5050348;28;20392;-80
2021/05/04 08:06:53;;;;;;;26.40;22.35;;;14.20;99.90;;;;;;5048950;28;20384;-79
2021/05/04 08:09:20;;;;;;;30.38;24.67;;;14.20;99.90;;;;;;5049276;28;20403;-80
2021/05/04 08:11:47;;;;;;;28.67;24.88;;;14.10;99.90;;;;;;5049620;28;20950;-79
2021/05/04 08:14:14;;;;;;;30.80;25.65;;;14.10;99.90;;;;;;5051008;28;20419;-80
2021/05/04 08:16:41;;;;;;;26.88;23.52;;;14.10;99.90;;;;;;5046187;28;20851;-79
2021/05/04 08:19:08;;;;;;;27.45;24.48;;;14.20;99.90;;;;;;5050113;28;20431;-79
2021/05/04 08:21:36;;;;;;;28.80;24.58;;;14.20;99.90;;;;;;5049293;28;20386;-79
2021/05/04 08:24:06;;;;;;;29.67;24.95;;;14.20;99.90;;;;;;5049976;28;20538;-79
2021/05/04 08:26:33;;;;;;;28.17;23.95;;;14.20;99.90;;;;;;5047679;28;20395;-79
2021/05/04 08:29:00;;;;;;;26.98;24.08;;;14.20;99.90;;;;;;5047456;28;20442;-79
2021/05/04 08:31:27;;;;;;;26.05;23.25;;;14.20;99.90;;;;;;5046584;28;20392;-79
2021/05/04 08:33:54;;;;;;;30.27;24.17;;;14.20;99.90;;;;;;5050250;28;20901;-80
2021/05/04 08:36:21;;;;;;;29.58;24.10;;;14.20;99.90;;;;;;5049890;28;20403;-80
2021/05/04 08:38:48;;;;;;;25.98;23.15;;;14.20;99.90;;;;;;5048912;28;20371;-80
2021/05/04 08:41:16;;;;;;;30.33;25.80;;;14.20;99.90;;;;;;5038311;28;20414;-80
2021/05/04 08:43:48;;;;;;;27.58;23.65;;;14.20;99.90;;;;;;5047800;28;20548;-79
2021/05/04 08:46:18;;;;;;;28.95;24.35;;;14.20;99.90;;;;;;5049722;28;20712;-80
2021/05/04 08:48:45;;;;;;;27.65;24.33;;;14.20;99.90;;;;;;5049195;28;20388;-78
2021/05/04 08:51:13;;;;;;;28.35;24.83;;;14.20;99.90;;;;;;5048120;28;20392;-78
2021/05/04 08:53:41;;;;;;;29.92;24.55;;;14.20;99.90;;;;;;5048333;28;20404;-79
2021/05/04 08:56:12;;;;;;;29.92;25.52;;;14.10;99.90;;;;;;5047458;28;20433;-79
2021/05/04 08:58:40;;;;;;;32.53;26.58;;;14.20;99.90;;;;;;5047414;28;20400;-79
2021/05/04 09:01:10;;;;;;;30.33;27.02;;;14.20;99.90;;;;;;5051296;28;20412;-80
2021/05/04 09:03:49;;;;;;;30.25;26.73;;;14.20;99.90;;;;;;5050800;28;20752;-78
2021/05/04 09:06:28;;;;;;;32.27;27.17;;;14.20;99.90;;;;;;5046201;28;20400;-80
2021/05/04 09:09:00;;;;;;;30.38;26.52;;;14.20;99.90;;;;;;5043418;28;20468;-82
2021/05/04 09:12:05;;;;;;;34.28;27.63;;;14.20;99.90;;;;;;5042807;28;20399;-81
2021/05/04 09:20:04;;;;;;;29.35;25.92;;;14.20;99.90;;;;;;5050090;28;20371;-83
2021/05/04 09:22:50;;;;;;;31.03;24.87;;;14.20;99.90;;;;;;5041255;28;20388;-80
2021/05/04 09:25:30;;;;;;;29.73;24.73;;;14.20;99.90;;;;;;5047444;28;21219;-82
2021/05/04 09:28:15;;;;;;;33.43;25.70;;;14.10;99.90;;;;;;5047399;28;20432;-81
2021/05/04 09:30:52;;;;;;;26.20;23.27;;;14.10;99.90;;;;;;5047321;28;20739;-83
2021/05/04 09:33:20;;;;;;;26.58;22.73;;;14.10;99.90;;;;;;5047549;28;20433;-81
2021/05/04 09:35:47;;;;;;;28.38;23.65;;;14.10;99.90;;;;;;5046575;28;20430;-82
2021/05/04 09:38:16;;;;;;;24.48;21.88;;;14.10;99.90;;;;;;5046907;28;20395;-84
2021/05/04 09:40:44;;;;;;;27.77;23.60;;;14.10;99.90;;;;;;5045508;28;20402;-82
2021/05/04 09:43:14;;;;;;;28.42;23.20;;;14.10;99.90;;;;;;5039211;28;20758;-82
2021/05/04 09:45:51;;;;;;;26.57;22.47;;;14.10;99.90;;;;;;5043174;28;20453;-83
2021/05/04 09:48:23;;;;;;;26.50;21.38;;;14.20;99.90;;;;;;5046979;28;20421;-84
2021/05/04 09:50:57;;;;;;;26.52;22.10;;;14.10;99.90;;;;;;5041899;28;20968;-83
2021/05/04 09:53:36;;;;;;;27.23;22.77;;;14.10;99.90;;;;;;5044561;28;20498;-83
2021/05/04 09:56:04;;;;;;;28.17;24.33;;;14.10;99.90;;;;;;5044311;28;20525;-84
2021/05/04 09:58:32;;;;;;;28.10;22.85;;;14.10;99.90;;;;;;5044023;28;20422;-83
2021/05/04 10:01:00;;;;;;;26.02;22.35;;;14.10;99.90;;;;;;5045151;28;20380;-84
2021/05/04 10:03:29;;;;;;;27.02;22.05;;;14.10;99.90;;;;;;5045033;28;20403;-84
2021/05/04 10:05:59;;;;;;;29.10;21.77;;;14.10;99.90;;;;;;5044865;28;20387;-83
2021/05/04 10:08:32;;;;;;;28.13;22.57;;;14.00;99.90;;;;;;5046007;28;20419;-84
2021/05/04 10:11:08;;;;;;;31.42;23.67;;;14.10;99.90;;;;;;5052979;28;20400;-83
2021/05/04 10:13:37;;;;;;;27.10;20.60;;;14.00;99.90;;;;;;5050372;28;20399;-83
2021/05/04 10:16:06;;;;;;;30.77;22.75;;;14.00;99.90;;;;;;5053005;28;20451;-83
2021/05/04 10:18:34;;;;;;;23.80;20.08;;;14.00;99.90;;;;;;5047107;28;20384;-82
2021/05/04 10:21:08;;;;;;;26.95;20.55;;;14.00;99.90;;;;;;5044172;28;20391;-82
2021/05/04 10:23:38;;;;;;;25.03;19.70;;;14.00;99.90;;;;;;5049742;28;20423;-81
2021/05/04 10:26:16;;;;;;;25.83;19.93;;;14.10;99.90;;;;;;5051173;28;20403;-81
2021/05/04 10:28:58;;;;;;;24.60;19.70;;;14.00;99.90;;;;;;5051739;28;20391;-81
2021/05/04 10:31:47;;;;;;;24.97;19.80;;;14.00;99.90;;;;;;5046527;28;20956;-83
2021/05/04 10:34:28;;;;;;;23.77;19.05;;;14.00;99.90;;;;;;5048088;28;20473;-81
2021/05/04 10:37:02;;;;;;;22.63;19.58;;;14.10;99.90;;;;;;5046864;28;20398;-81
2021/05/04 10:39:43;;;;;;;26.58;20.73;;;14.10;99.90;;;;;;5047436;28;20403;-81
2021/05/04 10:42:16;;;;;;;22.83;19.25;;;14.10;99.90;;;;;;5051476;28;20391;-79
2021/05/04 10:44:59;;;;;;;23.42;20.15;;;14.10;99.90;;;;;;5049311;28;20384;-80
2021/05/04 10:47:44;;;;;;;22.47;19.13;;;14.10;99.90;;;;;;5051573;28;20375;-80
2021/05/04 10:50:28;;;;;;;24.60;19.05;;;14.00;99.90;;;;;;5046902;28;20380;-79
2021/05/04 10:53:03;;;;;;;19.55;17.40;;;14.00;99.90;;;;;;5049647;28;20831;-80
2021/05/04 10:55:52;;;;;;;20.40;16.98;;;14.00;99.90;;;;;;5047056;28;20407;-79
2021/05/04 10:58:31;;;;;;;19.83;17.02;;;14.00;99.90;;;;;;5043648;28;20445;-79
2021/05/04 11:01:04;;;;;;;19.27;16.90;;;14.00;99.90;;;;;;5049640;28;20427;-79
2021/05/04 11:03:34;;;;;;;18.02;15.98;;;14.10;99.90;;;;;;5049132;28;20499;-79
2021/05/04 11:06:05;;;;;;;19.48;17.38;;;14.10;99.90;;;;;;5046581;28;20902;-80
2021/05/04 11:08:44;;;;;;;21.23;16.13;;;14.10;99.90;;;;;;5047752;28;20403;-80
2021/05/04 11:11:39;;;;;;;19.90;16.38;;;14.10;99.90;;;;;;5047800;28;20404;-80
2021/05/04 11:14:21;;;;;;;19.38;17.17;;;14.10;99.90;;;;;;5044960;28;20411;-80
2021/05/04 11:16:48;;;;;;;20.13;16.60;;;14.10;99.90;;;;;;5049581;28;20493;-79
2021/05/04 11:19:17;;;;;;;20.48;16.40;;;14.10;99.90;;;;;;5048386;28;20395;-78
2021/05/04 11:21:49;;;;;;;19.65;16.77;;;14.10;99.90;;;;;;5049318;28;20398;-79
2021/05/04 11:24:18;;;;;;;20.10;17.25;;;14.10;99.90;;;;;;5050157;28;20387;-80
2021/05/04 11:27:12;;;;;;;21.95;17.90;;;14.00;99.90;;;;;;5049625;28;20379;-80
2021/05/04 11:29:41;;;;;;;21.35;17.45;;;14.10;99.90;;;;;;5046011;28;20395;-79
2021/05/04 11:32:23;;;;;;;23.37;19.13;;;14.00;99.90;;;;;;5047652;28;20538;-80
2021/05/04 11:35:00;;;;;;;22.48;19.75;;;14.10;99.90;;;;;;5045188;28;20522;-81
2021/05/04 11:37:28;;;;;;;24.65;20.70;;;14.10;99.90;;;;;;5050915;28;20439;-82
2021/05/04 11:39:59;;;;;;;26.45;21.75;;;14.10;99.90;;;;;;5054617;28;21056;-82
2021/05/04 11:42:34;;;;;;;25.47;20.53;;;14.10;99.90;;;;;;5052413;28;20464;-82
2021/05/04 11:45:08;;;;;;;26.03;22.40;;;14.20;99.90;;;;;;5046301;28;20571;-81
2021/05/04 11:47:36;;;;;;;32.50;24.02;;;14.10;99.90;;;;;;5052235;28;20782;-81
2021/05/04 11:50:08;;;;;;;26.37;21.63;;;14.10;99.90;;;;;;5045959;28;20487;-80
2021/05/04 11:52:36;;;;;;;29.08;23.35;;;14.10;99.90;;;;;;5050661;28;20406;-81
2021/05/04 11:55:06;;;;;;;26.10;22.63;;;14.10;99.90;;;;;;5050469;28;20521;-81
2021/05/04 11:57:34;;;;;;;27.40;23.35;;;14.10;99.90;;;;;;5050301;28;20388;-80
2021/05/04 12:00:01;;;;;;;25.20;21.57;;;14.10;99.90;;;;;;5050842;28;20716;-81
2021/05/04 12:02:33;;;;;;;26.20;22.63;;;14.10;99.90;;;;;;5051490;28;20409;-81
2021/05/04 12:05:01;;;;;;;32.05;24.48;;;14.10;99.90;;;;;;5048227;28;20394;-80
2021/05/04 12:07:43;;;;;;;25.13;22.20;;;14.10;99.90;;;;;;5044390;28;20397;-80
2021/05/04 12:10:16;;;;;;;26.83;23.60;;;14.20;99.90;;;;;;5048601;28;20398;-81
2021/05/04 12:12:53;;;;;;;26.40;23.02;;;14.10;99.90;;;;;;5039111;28;20483;-81
2021/05/04 12:15:28;;;;;;;29.92;23.45;;;14.10;99.90;;;;;;5044804;28;20886;-82
2021/05/04 12:18:17;;;;;;;28.70;23.33;;;14.10;99.90;;;;;;5046594;28;20875;-81
2021/05/04 12:20:52;;;;;;;28.27;23.33;;;14.10;99.90;;;;;;5052099;28;20846;-82
2021/05/04 12:23:30;;;;;;;30.45;24.23;;;14.10;99.90;;;;;;5038537;28;20571;-81
2021/05/04 12:26:06;;;;;;;27.85;24.77;;;14.00;99.90;;;;;;5046926;28;20400;-82
2021/05/04 12:28:34;;;;;;;29.73;25.38;;;14.00;99.90;;;;;;5046734;28;20426;-82
2021/05/04 12:31:06;;;;;;;27.98;25.05;;;14.00;99.90;;;;;;5039196;28;20414;-82
2021/05/04 12:33:41;;;;;;;27.75;24.60;;;14.00;99.90;;;;;;5048024;28;20736;-82
2021/05/04 12:36:11;;;;;;;33.97;25.75;;;14.00;99.90;;;;;;5047817;28;21028;-82
2021/05/04 12:38:52;;;;;;;29.15;26.02;;;14.00;99.90;;;;;;5049557;28;20498;-81
2021/05/04 12:41:21;;;;;;;30.95;25.77;;;14.00;99.90;;;;;;5049608;28;20398;-84
2021/05/04 12:44:10;;;;;;;31.95;26.33;;;14.00;99.90;;;;;;5048576;28;21018;-83
2021/05/04 12:46:45;;;;;;;31.60;27.98;;;13.90;99.90;;;;;;5044271;28;20508;-84